createdAt,value
2019-04-06T00:01:30.748Z,3.91
2019-04-06T00:07:36.577Z,3.77
2019-04-06T00:22:41.129Z,3.47
2019-04-06T00:34:30.305Z,3.37
2019-04-06T00:40:20.543Z,3.26
2019-04-06T00:43:11.767Z,3.25
2019-04-06T00:49:05.355Z,3.12
2019-04-06T00:55:18.383Z,3.04
2019-04-06T01:04:22.692Z,2.85
2019-04-06T01:06:56.509Z,2.79
2019-04-06T01:09:27.291Z,2.79
2019-04-06T01:12:17.284Z,2.84
2019-04-06T01:14:49.082Z,2.75
2019-04-06T01:17:43.118Z,2.73
2019-04-06T01:20:29.031Z,2.69
2019-04-06T01:23:13.244Z,2.66
2019-04-06T01:26:06.386Z,2.66
2019-04-06T01:31:36.648Z,2.55
2019-04-06T01:34:19.301Z,2.54
2019-04-06T01:39:58.316Z,2.42
2019-04-06T01:42:49.757Z,2.42
2019-04-06T01:45:21.695Z,2.38
2019-04-06T01:48:11.275Z,2.36
2019-04-06T01:51:00.872Z,2.35
2019-04-06T01:53:51.845Z,2.28
2019-04-06T01:56:41.475Z,2.27
2019-04-06T01:59:31.311Z,2.24
2019-04-06T02:02:39.618Z,2.20
2019-04-06T02:05:29.566Z,2.22
2019-04-06T02:08:19.392Z,2.19
2019-04-06T02:11:08.943Z,2.19
2019-04-06T02:14:01.403Z,2.16
2019-04-06T02:16:32.159Z,2.09
2019-04-06T02:19:03.028Z,2.02
2019-04-06T02:21:52.548Z,2.06
2019-04-06T02:24:23.377Z,2.01
2019-04-06T02:27:13.077Z,1.97
2019-04-06T02:29:44.259Z,1.14
2019-04-06T02:32:44.811Z,1.92
2019-04-06T02:35:53.202Z,1.93
2019-04-06T02:39:02.463Z,1.96
2019-04-06T02:42:08.014Z,1.89
2019-04-06T02:44:38.641Z,1.90
2019-04-06T02:47:28.735Z,1.84
2019-04-06T02:53:12.568Z,1.77
2019-04-06T02:56:02.301Z,1.75
2019-04-06T02:58:33.630Z,1.80
2019-04-06T03:01:25.240Z,1.77
2019-04-06T03:04:15.477Z,1.81
2019-04-06T03:06:57.080Z,1.80
2019-04-06T03:09:28.299Z,1.82
2019-04-06T03:12:01.433Z,1.79
2019-04-06T03:14:32.366Z,1.76
2019-04-06T03:17:22.225Z,1.71
2019-04-06T03:20:11.992Z,1.74
2019-04-06T03:22:42.794Z,1.70
2019-04-06T03:25:23.476Z,1.73
2019-04-06T03:28:13.093Z,1.77
2019-04-06T03:31:02.975Z,1.67
2019-04-06T03:33:52.795Z,1.67
2019-04-06T03:36:43.009Z,1.63
2019-04-06T03:39:33.644Z,1.62
2019-04-06T03:42:23.597Z,1.62
2019-04-06T03:44:54.410Z,1.58
2019-04-06T03:47:38.422Z,1.53
2019-04-06T03:50:27.963Z,1.49
2019-04-06T03:53:17.543Z,1.48
2019-04-06T03:55:48.150Z,1.44
2019-04-06T03:58:19.493Z,1.45
2019-04-06T04:01:09.571Z,1.43
2019-04-06T04:03:59.352Z,1.45
2019-04-06T04:09:44.956Z,1.36
2019-04-06T04:12:15.600Z,1.46
2019-04-06T04:15:05.874Z,1.45
2019-04-06T04:21:46.099Z,1.37
2019-04-06T04:24:35.688Z,1.38
2019-04-06T04:27:06.480Z,1.36
2019-04-06T04:29:37.631Z,1.33
2019-04-06T04:32:08.398Z,1.35
2019-04-06T04:34:39.166Z,1.34
2019-04-06T04:37:10.044Z,1.32
2019-04-06T04:39:59.707Z,1.33
2019-04-06T04:42:30.424Z,1.21
2019-04-06T04:45:01.499Z,1.25
2019-04-06T04:47:51.274Z,1.29
2019-04-06T04:50:24.483Z,1.25
2019-04-06T04:52:55.375Z,1.24
2019-04-06T04:55:25.992Z,1.21
2019-04-06T04:58:15.908Z,1.17
2019-04-06T05:04:27.466Z,1.22
2019-04-06T05:06:58.031Z,1.28
2019-04-06T05:09:28.627Z,1.29
2019-04-06T05:12:18.657Z,1.30
2019-04-06T05:15:28.979Z,1.31
2019-04-06T05:17:59.905Z,1.30
2019-04-06T05:23:45.604Z,1.24
2019-04-06T05:26:16.246Z,1.30
2019-04-06T05:28:46.868Z,1.31
2019-04-06T05:31:17.741Z,1.38
2019-04-06T05:34:08.479Z,1.40
2019-04-06T05:36:58.298Z,1.46
2019-04-06T05:39:29.081Z,1.34
2019-04-06T05:42:19.051Z,1.39
2019-04-06T05:44:50.126Z,1.42
2019-04-06T05:47:40.793Z,1.52
2019-04-06T05:50:12.019Z,1.52
2019-04-06T05:52:42.643Z,1.49
2019-04-06T05:55:13.936Z,1.60
2019-04-06T05:57:44.727Z,1.71
2019-04-06T06:00:16.713Z,1.76
2019-04-06T06:02:47.290Z,1.83
2019-04-06T06:05:27.240Z,1.96
2019-04-06T06:07:58.028Z,2.05
2019-04-06T06:10:28.998Z,2.16
2019-04-06T06:13:18.608Z,2.20
2019-04-06T06:15:52.145Z,2.25
2019-04-06T06:21:55.665Z,2.38
2019-04-06T06:24:45.649Z,2.46
2019-04-06T06:27:16.861Z,2.54
2019-04-06T06:29:47.437Z,2.71
2019-04-06T06:32:31.024Z,2.84
2019-04-06T06:35:05.741Z,3.09
2019-04-06T06:37:36.463Z,3.27
2019-04-06T06:40:08.841Z,3.50
2019-04-06T06:42:39.642Z,3.67
2019-04-06T06:45:10.647Z,3.65
2019-04-06T06:47:41.448Z,3.80
2019-04-06T06:50:48.555Z,3.91
2019-04-06T06:53:18.502Z,4.10
2019-04-06T06:59:05.902Z,4.43
2019-04-06T07:01:57.965Z,4.59
2019-04-06T07:04:47.791Z,4.71
2019-04-06T07:07:18.518Z,4.85
2019-04-06T07:10:09.054Z,5.01
2019-04-06T07:12:44.655Z,5.15
2019-04-06T07:15:16.240Z,5.23
2019-04-06T07:17:46.985Z,5.31
2019-04-06T07:20:17.960Z,5.38
2019-04-06T07:26:06.275Z,5.57
2019-04-06T07:28:39.002Z,5.66
2019-04-06T07:34:23.527Z,6.09
2019-04-06T07:36:54.836Z,6.36
2019-04-06T07:43:07.526Z,7.02
2019-04-06T07:46:01.438Z,7.27
2019-04-06T07:48:41.105Z,7.57
2019-04-06T07:51:31.067Z,7.83
2019-04-06T07:54:20.816Z,8.08
2019-04-06T07:57:11.052Z,7.83
2019-04-06T07:59:42.025Z,8.47
2019-04-06T08:02:36.232Z,8.70
2019-04-06T08:05:28.420Z,8.79
2019-04-06T08:07:58.986Z,8.85
2019-04-06T08:10:30.401Z,8.99
2019-04-06T08:13:01.057Z,9.05
2019-04-06T08:15:50.887Z,9.14
2019-04-06T08:18:21.582Z,9.28
2019-04-06T08:21:12.576Z,9.29
2019-04-06T08:23:43.165Z,9.46
2019-04-06T08:26:38.011Z,9.76
2019-04-06T08:29:08.685Z,9.72
2019-04-06T08:31:40.223Z,9.96
2019-04-06T08:34:31.376Z,10.03
2019-04-06T08:37:03.331Z,10.47
2019-04-06T08:40:01.079Z,10.67
2019-04-06T08:42:32.255Z,10.74
2019-04-06T08:45:23.238Z,10.90
2019-04-06T08:48:16.921Z,11.07
2019-04-06T08:50:47.836Z,11.27
2019-04-06T08:53:25.293Z,11.34
2019-04-06T08:55:57.390Z,11.57
2019-04-06T08:58:36.377Z,11.63
2019-04-06T09:01:27.526Z,11.82
2019-04-06T09:04:17.856Z,11.90
2019-04-06T09:06:48.643Z,12.24
2019-04-06T09:09:39.228Z,12.63
2019-04-06T09:12:29.336Z,12.78
2019-04-06T09:15:00.195Z,12.57
2019-04-06T09:17:50.737Z,12.39
2019-04-06T09:20:21.768Z,12.30
2019-04-06T09:22:52.815Z,12.40
2019-04-06T09:25:23.798Z,12.30
2019-04-06T09:28:14.001Z,12.57
2019-04-06T09:30:44.728Z,12.69
2019-04-06T09:33:35.365Z,12.73
2019-04-06T09:36:07.797Z,12.69
2019-04-06T09:38:41.025Z,12.74
2019-04-06T09:41:26.123Z,12.63
2019-04-06T09:43:59.210Z,12.66
2019-04-06T09:47:01.963Z,12.53
2019-04-06T09:50:12.225Z,12.43
2019-04-06T09:53:02.075Z,12.54
2019-04-06T09:55:39.442Z,12.66
2019-04-06T09:58:29.778Z,12.71
2019-04-06T10:01:51.947Z,13.02
2019-04-06T10:04:44.432Z,13.17
2019-04-06T10:07:34.427Z,13.66
2019-04-06T10:10:46.332Z,13.77
2019-04-06T10:13:35.752Z,13.58
2019-04-06T10:16:45.194Z,15.44
2019-04-06T10:19:55.175Z,15.46
2019-04-06T10:22:45.453Z,16.33
2019-04-06T10:25:39.034Z,17.07
2019-04-06T10:28:26.999Z,18.47
2019-04-06T10:31:16.501Z,18.36
2019-04-06T10:34:26.161Z,18.27
2019-04-06T10:37:15.944Z,18.16
2019-04-06T10:43:08.125Z,16.07
2019-04-06T10:45:57.588Z,15.50
2019-04-06T10:48:47.796Z,14.81
2019-04-06T10:51:56.659Z,14.44
2019-04-06T10:55:09.577Z,14.24
2019-04-06T10:58:17.804Z,13.85
2019-04-06T11:04:43.368Z,13.58
2019-04-06T11:07:50.761Z,13.57
2019-04-06T11:10:40.967Z,13.78
2019-04-06T11:16:31.383Z,13.85
2019-04-06T11:19:42.474Z,14.03
2019-04-06T11:22:51.423Z,14.39
2019-04-06T11:25:35.546Z,13.75
2019-04-06T11:28:20.689Z,14.44
2019-04-06T11:31:16.489Z,14.41
2019-04-06T11:34:44.678Z,14.30
2019-04-06T11:37:55.504Z,14.33
2019-04-06T11:40:56.401Z,14.50
2019-04-06T11:43:48.194Z,14.32
2019-04-06T11:46:38.014Z,14.33
2019-04-06T11:49:20.793Z,14.37
2019-04-06T11:52:35.132Z,14.43
2019-04-06T11:55:25.037Z,13.67
2019-04-06T12:01:26.297Z,14.69
2019-04-06T12:04:15.852Z,14.73
2019-04-06T12:07:00.951Z,15.02
2019-04-06T12:10:11.575Z,15.08
2019-04-06T12:12:55.559Z,14.80
2019-04-06T12:15:48.063Z,14.47
2019-04-06T12:18:37.615Z,14.37
2019-04-06T12:21:59.978Z,14.33
2019-04-06T12:25:02.430Z,14.41
2019-04-06T12:28:14.156Z,14.42
2019-04-06T12:31:22.775Z,14.41
2019-04-06T12:34:13.410Z,14.28
2019-04-06T12:37:22.024Z,14.21
2019-04-06T12:40:12.584Z,14.28
2019-04-06T12:43:08.236Z,14.02
2019-04-06T12:46:04.698Z,13.79
2019-04-06T12:48:47.866Z,13.80
2019-04-06T12:51:33.397Z,13.59
2019-04-06T12:54:23.350Z,13.60
2019-04-06T12:57:31.889Z,13.61
2019-04-06T13:00:50.900Z,13.56
2019-04-06T13:03:32.706Z,13.71
2019-04-06T13:06:26.684Z,13.67
2019-04-06T13:09:35.143Z,13.70
2019-04-06T13:12:26.751Z,13.80
2019-04-06T13:15:32.888Z,13.94
2019-04-06T13:18:30.299Z,14.06
2019-04-06T13:24:47.385Z,14.14
2019-04-06T13:27:55.827Z,14.32
2019-04-06T13:31:07.592Z,13.82
2019-04-06T13:34:08.405Z,14.68
2019-04-06T13:37:09.045Z,15.54
2019-04-06T13:39:59.787Z,16.73
2019-04-06T13:43:10.682Z,17.33
2019-04-06T13:46:03.130Z,17.45
2019-04-06T13:48:52.544Z,17.73
2019-04-06T13:52:01.932Z,17.69
2019-04-06T13:55:10.595Z,17.05
2019-04-06T13:58:20.281Z,17.18
2019-04-06T14:01:30.477Z,18.21
2019-04-06T14:04:13.793Z,18.98
2019-04-06T14:07:03.316Z,19.09
2019-04-06T14:10:13.013Z,18.68
2019-04-06T14:13:03.643Z,18.17
2019-04-06T14:15:53.123Z,17.63
2019-04-06T14:19:04.229Z,17.46
2019-04-06T14:28:54.033Z,16.94
2019-04-06T14:31:43.651Z,16.76
2019-04-06T14:41:02.802Z,17.27
2019-04-06T14:47:34.163Z,21.43
2019-04-06T14:50:26.297Z,22.74
2019-04-06T14:53:21.586Z,23.99
2019-04-06T15:03:02.658Z,19.47
2019-04-06T15:05:53.295Z,18.11
2019-04-06T15:08:33.753Z,21.52
2019-04-06T15:18:06.119Z,21.00
2019-04-06T15:23:49.078Z,20.13
2019-04-06T15:27:02.805Z,19.44
2019-04-06T15:33:43.058Z,18.75
2019-04-06T15:36:52.072Z,19.07
2019-04-06T15:40:17.022Z,18.87
2019-04-06T15:57:32.109Z,17.61
2019-04-06T16:00:14.167Z,16.96
2019-04-06T16:02:57.039Z,16.44
2019-04-06T16:05:33.166Z,16.22
2019-04-06T16:08:29.057Z,16.19
2019-04-06T16:11:14.500Z,16.30
2019-04-06T16:20:18.561Z,17.07
2019-04-06T16:26:34.154Z,17.62
2019-04-06T16:32:33.259Z,17.01
2019-04-06T16:38:06.882Z,16.21
2019-04-06T16:44:13.688Z,16.29
2019-04-06T16:49:54.763Z,16.18
2019-04-06T16:53:06.644Z,16.07
2019-04-06T16:56:10.743Z,15.84
2019-04-06T17:05:10.441Z,15.41
2019-04-06T17:08:21.913Z,15.30
2019-04-06T17:18:15.390Z,14.80
2019-04-06T17:24:33.765Z,14.22
2019-04-06T17:27:23.812Z,13.91
2019-04-06T17:30:16.506Z,13.61
2019-04-06T17:33:23.568Z,13.40
2019-04-06T17:36:18.711Z,13.19
2019-04-06T17:39:13.202Z,12.96
2019-04-06T17:42:11.472Z,12.86
2019-04-06T17:45:19.690Z,12.93
2019-04-06T17:48:22.898Z,12.90
2019-04-06T17:54:33.926Z,12.88
2019-04-06T17:57:49.125Z,12.71
2019-04-06T18:04:18.527Z,12.58
2019-04-06T18:07:11.825Z,12.51
2019-04-06T18:10:06.205Z,12.39
2019-04-06T18:13:01.953Z,12.32
2019-04-06T18:23:23.517Z,11.92
2019-04-06T19:16:12.813Z,10.35
2019-04-06T19:19:40.800Z,10.34
2019-04-06T19:22:36.794Z,10.21
2019-04-06T19:32:11.522Z,9.95
2019-04-06T19:35:06.654Z,9.86
2019-04-06T19:37:59.683Z,9.84
2019-04-06T19:40:39.681Z,9.69
2019-04-06T19:55:50.913Z,9.34
2019-04-06T20:01:26.168Z,9.21
2019-04-06T20:04:12.315Z,9.19
2019-04-06T20:11:17.743Z,9.02
2019-04-06T20:21:06.860Z,8.77
2019-04-06T20:24:33.024Z,8.69
2019-04-06T20:27:30.595Z,8.69
2019-04-06T20:56:09.695Z,8.15
2019-04-06T21:02:16.159Z,8.02
2019-04-06T21:05:00.354Z,7.91
2019-04-06T21:07:58.663Z,7.87
2019-04-06T21:14:42.833Z,7.83
2019-04-06T21:21:38.704Z,7.88
2019-04-06T21:24:15.712Z,7.79
2019-04-06T21:26:50.992Z,7.65
2019-04-06T21:29:29.666Z,7.60
2019-04-06T21:32:01.790Z,7.49
2019-04-06T21:34:34.967Z,7.53
2019-04-06T21:37:09.784Z,7.47
2019-04-06T21:39:41.707Z,7.35
2019-04-06T21:42:13.049Z,7.26
2019-04-06T21:44:44.931Z,7.24
2019-04-06T21:47:19.413Z,7.17
2019-04-06T21:49:52.285Z,7.12
2019-04-06T21:52:26.252Z,7.06
2019-04-06T21:54:57.856Z,7.01
2019-04-06T21:57:30.992Z,6.96
2019-04-06T22:00:05.743Z,6.85
2019-04-06T22:02:36.859Z,6.82
2019-04-06T22:05:08.338Z,6.78
2019-04-06T22:07:49.606Z,6.80
2019-04-06T22:10:17.262Z,6.82
2019-04-06T22:12:49.032Z,6.76
2019-04-06T22:15:25.672Z,6.75
2019-04-06T22:17:56.739Z,6.77
2019-04-06T22:20:28.943Z,6.76
2019-04-06T22:23:07.021Z,6.67
2019-04-06T22:25:49.354Z,6.60
2019-04-06T22:28:25.617Z,6.47
2019-04-06T22:31:50.169Z,6.46
2019-04-06T22:34:34.044Z,6.49
2019-04-06T22:36:55.940Z,6.44
2019-04-06T22:39:28.365Z,6.36
2019-04-06T22:49:11.249Z,6.25
2019-04-06T22:51:43.419Z,6.17
2019-04-06T22:54:16.307Z,6.12
2019-04-06T22:56:48.364Z,6.09
2019-04-06T22:59:21.440Z,6.04
2019-04-06T23:01:53.355Z,6.10
2019-04-06T23:04:29.792Z,6.04
2019-04-06T23:07:07.612Z,6.03
2019-04-06T23:09:38.516Z,6.00
2019-04-06T23:12:10.208Z,5.97
2019-04-06T23:14:42.080Z,5.93
2019-04-06T23:17:13.596Z,5.91
2019-04-06T23:19:45.337Z,5.89
2019-04-06T23:22:23.536Z,5.88
2019-04-06T23:24:57.017Z,5.86
2019-04-06T23:27:28.209Z,5.79
2019-04-06T23:30:01.851Z,5.75
2019-04-06T23:32:33.099Z,5.80
2019-04-06T23:35:07.057Z,5.73
2019-04-06T23:41:13.649Z,5.72
2019-04-06T23:43:46.973Z,5.71
2019-04-06T23:46:19.017Z,5.69
2019-04-06T23:48:55.214Z,5.60
2019-04-06T23:51:28.490Z,5.60
2019-04-06T23:54:07.069Z,5.56
2019-04-06T23:56:38.589Z,5.50
2019-04-06T23:59:12.990Z,5.48
